createdAt,value
2023-10-25T00:01:44.116Z,96861.02
2023-10-25T00:04:31.444Z,96859.67
2023-10-25T00:07:20.130Z,96859.67
2023-10-25T00:10:08.792Z,96851.29
2023-10-25T00:12:55.687Z,96848.13
2023-10-25T00:15:42.305Z,96846.46
2023-10-25T00:18:30.086Z,96835.10
2023-10-25T00:21:16.869Z,96831.80
2023-10-25T00:24:03.749Z,96830.45
2023-10-25T00:26:50.733Z,96824.84
2023-10-25T00:29:37.382Z,96817.28
2023-10-25T00:32:25.218Z,96815.80
2023-10-25T00:35:12.004Z,96811.11
2023-10-25T00:37:59.182Z,96806.91
2023-10-25T00:40:47.765Z,96806.16
2023-10-25T00:43:34.498Z,96803.02
2023-10-25T00:46:28.286Z,96798.15
2023-10-25T00:49:15.794Z,96796.04
2023-10-25T00:52:03.137Z,96789.04
2023-10-25T00:54:51.162Z,96789.41
2023-10-25T00:57:38.588Z,96787.92
2023-10-25T01:00:26.514Z,96789.02
2023-10-25T01:03:13.849Z,96788.39
2023-10-25T01:06:02.650Z,96786.31
2023-10-25T01:08:49.577Z,96782.41
2023-10-25T01:11:36.669Z,96782.16
2023-10-25T01:14:27.496Z,96781.70
2023-10-25T01:17:14.587Z,96783.12
2023-10-25T01:20:01.436Z,96781.61
2023-10-25T01:22:49.226Z,96778.69
2023-10-25T01:25:36.315Z,96781.69
2023-10-25T01:28:23.713Z,96779.73
2023-10-25T01:31:10.702Z,96785.27
2023-10-25T01:33:57.696Z,96787.56
2023-10-25T01:36:46.380Z,96787.73
2023-10-25T01:39:33.254Z,96786.80
2023-10-25T01:42:19.948Z,96789.05
2023-10-25T01:45:07.364Z,96785.77
2023-10-25T01:47:56.348Z,96787.40
2023-10-25T01:50:43.510Z,96783.59
2023-10-25T01:53:30.291Z,96781.89
2023-10-25T01:56:17.185Z,96785.90
2023-10-25T01:59:04.069Z,96788.14
2023-10-25T02:01:51.240Z,96788.52
2023-10-25T02:04:38.108Z,96784.88
2023-10-25T02:07:25.321Z,96787.03
2023-10-25T02:10:14.519Z,96788.27
2023-10-25T02:13:01.492Z,96787.85
2023-10-25T02:15:48.230Z,96789.26
2023-10-25T02:18:35.262Z,96789.32
2023-10-25T02:21:22.551Z,96791.77
2023-10-25T02:24:12.145Z,96789.45
2023-10-25T02:26:58.933Z,96791.73
2023-10-25T02:29:45.707Z,96792.95
2023-10-25T02:32:32.751Z,96795.06
2023-10-25T02:35:19.787Z,96791.86
2023-10-25T02:38:07.478Z,96786.85
2023-10-25T02:40:54.168Z,96783.14
2023-10-25T02:43:41.139Z,96780.94
2023-10-25T02:46:28.118Z,96782.20
2023-10-25T02:49:14.964Z,96779.77
2023-10-25T02:52:01.939Z,96779.45
2023-10-25T02:54:48.595Z,96782.95
2023-10-25T02:57:35.264Z,96780.48
2023-10-25T03:00:22.150Z,96779.67
2023-10-25T03:03:09.287Z,96780.48
2023-10-25T03:05:56.219Z,96777.45
2023-10-25T03:08:43.108Z,96787.42
2023-10-25T03:11:30.088Z,96793.23
2023-10-25T03:14:16.672Z,96794.64
2023-10-25T03:17:03.357Z,96796.48
2023-10-25T03:19:50.556Z,96797.30
2023-10-25T03:22:37.546Z,96799.25
2023-10-25T03:25:24.630Z,96802.30
2023-10-25T03:28:11.540Z,96808.08
2023-10-25T03:30:59.146Z,96809.98
2023-10-25T03:33:46.294Z,96811.02
2023-10-25T03:36:35.489Z,96813.69
2023-10-25T03:39:22.869Z,96818.06
2023-10-25T03:42:09.652Z,96818.66
2023-10-25T03:44:56.940Z,96820.07
2023-10-25T03:47:43.966Z,96816.48
2023-10-25T03:50:31.312Z,96814.99
2023-10-25T03:53:19.278Z,96816.80
2023-10-25T03:56:05.987Z,96814.85
2023-10-25T03:58:53.000Z,96812.64
2023-10-25T04:01:40.574Z,96812.80
2023-10-25T04:04:27.385Z,96806.86
2023-10-25T04:07:14.081Z,96803.14
2023-10-25T04:10:01.138Z,96802.34
2023-10-25T04:12:47.790Z,96806.96
2023-10-25T04:15:36.522Z,96808.07
2023-10-25T04:18:28.680Z,96808.17
2023-10-25T04:21:15.507Z,96812.80
2023-10-25T04:24:02.774Z,96810.62
2023-10-25T04:26:49.185Z,96814.24
2023-10-25T04:29:35.690Z,96818.13
2023-10-25T04:32:22.834Z,96814.95
2023-10-25T04:35:09.399Z,96815.06
2023-10-25T04:37:56.899Z,96816.99
2023-10-25T04:40:43.671Z,96819.88
2023-10-25T04:43:31.669Z,96822.34
2023-10-25T04:46:18.837Z,96821.08
2023-10-25T04:49:06.056Z,96820.96
2023-10-25T04:51:53.349Z,96828.06
2023-10-25T04:54:44.120Z,96834.09
2023-10-25T04:57:30.627Z,96837.09
2023-10-25T05:00:17.509Z,96843.14
2023-10-25T05:03:06.710Z,96848.18
2023-10-25T05:05:59.280Z,96854.69
2023-10-25T05:08:46.568Z,96860.73
2023-10-25T05:11:36.151Z,96866.65
2023-10-25T05:14:23.245Z,96873.48
2023-10-25T05:17:10.978Z,96875.48
2023-10-25T05:19:58.837Z,96881.46
2023-10-25T05:22:51.237Z,96887.45
2023-10-25T05:25:38.020Z,96889.70
2023-10-25T05:28:25.070Z,96896.25
2023-10-25T05:31:14.345Z,96900.34
2023-10-25T05:34:02.144Z,96911.64
2023-10-25T05:36:49.108Z,96913.02
2023-10-25T05:39:36.249Z,96918.09
2023-10-25T05:42:25.152Z,96920.09
2023-10-25T05:45:11.539Z,96923.41
2023-10-25T05:47:58.519Z,96933.33
2023-10-25T05:50:48.996Z,96934.48
2023-10-25T05:53:36.100Z,96937.40
2023-10-25T05:56:27.329Z,96941.60
2023-10-25T05:59:14.012Z,96948.49
2023-10-25T06:02:12.191Z,96954.30
2023-10-25T06:05:05.953Z,96964.08
2023-10-25T06:07:54.463Z,96971.33
2023-10-25T06:10:43.213Z,96969.20
2023-10-25T06:13:30.036Z,96976.48
2023-10-25T06:16:17.159Z,96980.45
2023-10-25T06:19:03.944Z,96986.48
2023-10-25T06:21:50.747Z,96986.89
2023-10-25T06:24:37.713Z,96985.62
2023-10-25T06:27:24.436Z,96993.63
2023-10-25T06:30:11.725Z,96999.98
2023-10-25T06:33:00.118Z,96999.29
2023-10-25T06:35:47.184Z,97002.20
2023-10-25T06:38:37.530Z,97003.23
2023-10-25T06:41:24.700Z,97003.73
2023-10-25T06:44:14.241Z,97002.86
2023-10-25T06:47:01.235Z,97006.96
2023-10-25T06:49:48.597Z,97013.20
2023-10-25T06:52:35.529Z,97014.77
2023-10-25T06:55:22.771Z,97015.02
2023-10-25T06:58:11.960Z,97012.27
2023-10-25T07:00:59.164Z,97015.10
2023-10-25T07:03:48.328Z,97018.09
2023-10-25T07:06:35.774Z,97016.88
2023-10-25T07:09:22.439Z,97014.45
2023-10-25T07:12:09.228Z,97017.30
2023-10-25T07:14:58.134Z,97017.00
2023-10-25T07:17:46.236Z,97015.93
2023-10-25T07:20:33.202Z,97015.45
2023-10-25T07:23:20.285Z,97018.48
2023-10-25T07:26:08.111Z,97016.01
2023-10-25T07:28:54.978Z,97020.96
2023-10-25T07:31:41.999Z,97022.79
2023-10-25T07:34:28.976Z,97025.64
2023-10-25T07:37:16.625Z,97026.80
2023-10-25T07:40:06.950Z,97024.67
2023-10-25T07:42:53.704Z,97027.58
2023-10-25T07:45:40.326Z,97026.46
2023-10-25T07:48:28.654Z,97027.73
2023-10-25T07:51:15.665Z,97029.58
2023-10-25T07:54:05.672Z,97033.86
2023-10-25T07:59:41.941Z,97035.95
2023-10-25T08:02:29.009Z,97039.98
2023-10-25T08:05:17.771Z,97042.15
2023-10-25T08:08:05.434Z,97047.43
2023-10-25T08:11:06.002Z,97052.64
2023-10-25T08:13:53.231Z,97056.37
2023-10-25T08:16:40.857Z,97057.81
2023-10-25T08:19:27.998Z,97059.05
2023-10-25T08:22:15.394Z,97056.71
2023-10-25T08:25:02.332Z,97058.61
2023-10-25T08:27:49.089Z,97057.14
2023-10-25T08:30:36.454Z,97063.13
2023-10-25T08:33:23.874Z,97066.34
2023-10-25T08:36:11.249Z,97066.81
2023-10-25T08:39:00.736Z,97066.56
2023-10-25T08:41:48.619Z,97068.67
2023-10-25T08:44:40.382Z,97067.17
2023-10-25T08:47:27.605Z,97069.99
2023-10-25T08:50:20.797Z,97073.58
2023-10-25T08:53:08.795Z,97070.30
2023-10-25T08:55:57.124Z,97071.69
2023-10-25T08:58:44.265Z,97073.83
2023-10-25T09:01:31.653Z,97078.52
2023-10-25T09:04:19.083Z,97078.21
2023-10-25T09:07:30.456Z,97078.00
2023-10-25T09:10:18.939Z,97088.50
2023-10-25T09:13:14.390Z,97083.58
2023-10-25T09:16:17.941Z,97087.08
2023-10-25T09:19:05.185Z,97093.16
2023-10-25T09:21:53.935Z,97095.03
2023-10-25T09:24:51.207Z,97099.35
2023-10-25T09:27:43.261Z,97097.98
2023-10-25T09:30:31.406Z,97097.33
2023-10-25T09:33:18.544Z,97095.73
2023-10-25T09:36:05.682Z,97094.59
2023-10-25T09:38:54.428Z,97094.44
2023-10-25T09:41:41.968Z,97098.65
2023-10-25T09:44:32.960Z,97102.09
2023-10-25T09:47:20.345Z,97099.52
2023-10-25T09:50:17.213Z,97102.80
2023-10-25T09:53:18.604Z,97106.39
2023-10-25T09:56:06.794Z,97106.99
2023-10-25T09:58:54.970Z,97105.42
2023-10-25T10:01:42.423Z,97109.48
2023-10-25T10:04:45.755Z,97106.23
2023-10-25T10:07:35.995Z,97110.57
2023-10-25T10:10:28.334Z,97116.30
2023-10-25T10:13:19.203Z,97123.89
2023-10-25T10:16:10.496Z,97125.69
2023-10-25T10:18:57.757Z,97130.17
2023-10-25T10:22:04.108Z,97130.82
2023-10-25T10:24:54.540Z,97125.52
2023-10-25T10:27:41.495Z,97123.91
2023-10-25T10:30:34.641Z,97127.82
2023-10-25T10:33:25.596Z,97128.02
2023-10-25T10:36:15.214Z,97126.18
2023-10-25T10:39:17.702Z,97123.47
2023-10-25T10:42:04.619Z,97127.36
2023-10-25T10:44:51.562Z,97128.48
2023-10-25T10:47:41.103Z,97125.65
2023-10-25T10:50:28.558Z,97124.98
2023-10-25T10:53:15.371Z,97133.55
2023-10-25T10:56:01.958Z,97130.77
2023-10-25T10:58:48.946Z,97127.90
2023-10-25T11:01:35.546Z,97132.10
2023-10-25T11:04:22.564Z,97134.73
2023-10-25T11:07:09.606Z,97133.57
2023-10-25T11:09:57.620Z,97128.77
2023-10-25T11:12:44.576Z,97131.73
2023-10-25T11:15:31.860Z,97133.63
2023-10-25T11:18:18.872Z,97136.73
2023-10-25T11:21:05.667Z,97139.67
2023-10-25T11:23:52.753Z,97143.08
2023-10-25T11:26:41.996Z,97146.63
2023-10-25T11:29:29.484Z,97150.70
2023-10-25T11:32:16.686Z,97153.77
2023-10-25T11:35:05.207Z,97153.30
2023-10-25T11:37:54.106Z,97151.67
2023-10-25T11:40:44.567Z,97152.17
2023-10-25T11:43:32.152Z,97152.12
2023-10-25T11:46:18.789Z,97156.02
2023-10-25T11:49:06.737Z,97150.34
2023-10-25T11:51:54.909Z,97150.34
2023-10-25T11:54:41.800Z,97151.79
2023-10-25T11:57:30.698Z,97146.50
2023-10-25T12:00:17.485Z,97150.84
2023-10-25T12:03:04.292Z,97146.20
2023-10-25T12:05:52.344Z,97149.29
2023-10-25T12:08:43.113Z,97154.02
2023-10-25T12:11:30.737Z,97152.73
2023-10-25T12:14:31.347Z,97145.04
2023-10-25T12:17:19.819Z,97144.73
2023-10-25T12:20:25.854Z,97143.98
2023-10-25T12:23:14.110Z,97135.06
2023-10-25T12:26:01.801Z,97136.45
2023-10-25T12:28:48.469Z,97135.58
2023-10-25T12:31:35.420Z,97131.73
2023-10-25T12:34:22.560Z,97133.04
2023-10-25T12:37:10.153Z,97121.94
2023-10-25T12:39:57.736Z,97120.18
2023-10-25T12:42:44.642Z,97110.83
2023-10-25T12:45:32.746Z,97105.15
2023-10-25T12:48:19.710Z,97099.52
2023-10-25T12:51:06.816Z,97102.54
2023-10-25T12:53:53.878Z,97101.54
2023-10-25T12:56:41.285Z,97097.11
2023-10-25T12:59:28.496Z,97102.19
2023-10-25T13:02:15.570Z,97104.31
2023-10-25T13:05:03.627Z,97109.02
2023-10-25T13:07:50.802Z,97112.30
2023-10-25T13:10:37.538Z,97117.21
2023-10-25T13:13:24.398Z,97117.13
2023-10-25T13:16:13.572Z,97120.55
2023-10-25T13:19:01.891Z,97121.88
2023-10-25T13:21:48.541Z,97125.05
2023-10-25T13:24:35.653Z,97127.14
2023-10-25T13:27:22.109Z,97129.47
2023-10-25T13:30:09.864Z,97135.83
2023-10-25T13:32:57.366Z,97131.88
2023-10-25T13:35:44.617Z,97127.85
2023-10-25T13:38:32.659Z,97125.40
2023-10-25T13:41:21.158Z,97123.61
2023-10-25T13:44:07.847Z,97122.63
2023-10-25T13:46:54.638Z,97115.61
2023-10-25T13:49:42.047Z,97110.02
2023-10-25T13:52:29.194Z,97110.80
2023-10-25T13:55:16.799Z,97110.92
2023-10-25T13:58:03.885Z,97114.01
2023-10-25T14:00:52.075Z,97111.28
2023-10-25T14:03:38.780Z,97114.63
2023-10-25T14:06:25.828Z,97112.45
2023-10-25T14:09:13.020Z,97110.06
2023-10-25T14:11:59.737Z,97119.11
2023-10-25T14:14:46.882Z,97123.19
2023-10-25T14:17:34.281Z,97125.67
2023-10-25T14:20:21.049Z,97123.91
2023-10-25T14:23:08.896Z,97120.55
2023-10-25T14:25:55.834Z,97111.20
2023-10-25T14:28:42.856Z,97106.06
2023-10-25T14:31:29.815Z,97104.27
2023-10-25T14:34:18.100Z,97102.33
2023-10-25T14:37:09.177Z,97100.61
2023-10-25T14:39:56.189Z,97100.05
2023-10-25T14:42:44.563Z,97098.53
2023-10-25T14:45:35.273Z,97103.27
2023-10-25T14:48:22.145Z,97106.48
2023-10-25T14:51:27.393Z,97102.61
2023-10-25T14:54:15.148Z,97104.42
2023-10-25T14:57:02.459Z,97100.51
2023-10-25T14:59:52.342Z,97101.27
2023-10-25T15:02:40.409Z,97101.44
2023-10-25T15:05:27.294Z,97095.63
2023-10-25T15:08:14.241Z,97094.84
2023-10-25T15:11:03.065Z,97091.27
2023-10-25T15:13:50.216Z,97081.85
2023-10-25T15:16:36.813Z,97077.42
2023-10-25T15:19:23.488Z,97076.58
2023-10-25T15:22:10.086Z,97077.16
2023-10-25T15:25:00.084Z,97076.23
2023-10-25T15:27:47.260Z,97079.77
2023-10-25T15:30:34.028Z,97076.52
2023-10-25T15:33:24.501Z,97071.84
2023-10-25T15:36:11.566Z,97069.80
2023-10-25T15:39:09.088Z,97060.28
2023-10-25T15:41:57.452Z,97058.03
2023-10-25T15:44:44.679Z,97058.66
2023-10-25T15:47:32.045Z,97061.83
2023-10-25T15:50:19.286Z,97068.42
2023-10-25T15:53:17.090Z,97064.77
2023-10-25T15:56:09.054Z,97059.60
2023-10-25T15:58:55.851Z,97060.06
2023-10-25T16:01:52.154Z,97063.02
2023-10-25T16:04:44.545Z,97063.40
2023-10-25T16:07:31.426Z,97063.04
2023-10-25T16:10:18.474Z,97063.83
2023-10-25T16:13:05.240Z,97061.45
2023-10-25T16:15:51.993Z,97060.11
2023-10-25T16:18:38.987Z,97064.08
2023-10-25T16:21:26.263Z,97063.55
2023-10-25T16:24:13.222Z,97057.71
2023-10-25T16:27:00.326Z,97056.42
2023-10-25T16:29:49.471Z,97054.79
2023-10-25T16:32:36.354Z,97057.34
2023-10-25T16:35:24.008Z,97057.50
2023-10-25T16:38:10.904Z,97061.18
2023-10-25T16:41:09.255Z,97061.90
2023-10-25T16:43:56.012Z,97062.20
2023-10-25T16:46:43.991Z,97060.59
2023-10-25T16:49:31.178Z,97055.95
2023-10-25T16:52:18.203Z,97055.45
2023-10-25T16:55:05.384Z,97058.77
2023-10-25T16:57:52.236Z,97054.20
2023-10-25T17:00:39.335Z,97048.89
2023-10-25T17:03:27.768Z,97048.23
2023-10-25T17:06:15.009Z,97050.80
2023-10-25T17:09:01.934Z,97054.09
2023-10-25T17:11:49.426Z,97053.33
2023-10-25T17:14:36.571Z,97052.80
2023-10-25T17:17:23.373Z,97052.58
2023-10-25T17:20:10.935Z,97050.80
2023-10-25T17:22:57.721Z,97054.48
2023-10-25T17:25:46.148Z,97048.25
2023-10-25T17:28:34.716Z,97042.41
2023-10-25T17:31:21.788Z,97038.06
2023-10-25T17:34:08.771Z,97043.03
2023-10-25T17:36:57.766Z,97042.88
2023-10-25T17:39:44.652Z,97037.54
2023-10-25T17:42:31.840Z,97034.40
2023-10-25T17:45:21.778Z,97027.46
2023-10-25T17:48:08.491Z,97024.92
2023-10-25T17:50:56.294Z,97021.35
2023-10-25T17:53:43.439Z,97022.38
2023-10-25T17:56:30.108Z,97016.95
2023-10-25T17:59:16.858Z,97011.23
2023-10-25T18:02:04.039Z,97006.36
2023-10-25T18:04:51.033Z,96999.88
2023-10-25T18:07:38.414Z,97000.52
2023-10-25T18:10:25.197Z,96999.33
2023-10-25T18:13:12.701Z,97001.88
2023-10-25T18:15:59.656Z,96995.78
2023-10-25T18:18:46.881Z,96997.49
2023-10-25T18:21:33.943Z,96994.49
2023-10-25T18:24:21.099Z,96996.30
2023-10-25T18:27:08.257Z,96995.04
2023-10-25T18:30:18.649Z,96991.89
2023-10-25T18:33:06.823Z,96989.79
2023-10-25T18:35:53.639Z,96986.36
2023-10-25T18:38:40.659Z,96985.12
2023-10-25T18:41:27.365Z,96982.60
2023-10-25T18:44:14.121Z,96988.16
2023-10-25T18:47:01.008Z,96989.84
2023-10-25T18:49:47.570Z,96983.09
2023-10-25T18:52:34.592Z,96986.24
2023-10-25T18:55:22.046Z,96988.26
2023-10-25T18:58:08.567Z,96981.66
2023-10-25T19:00:57.069Z,96978.05
2023-10-25T19:03:50.499Z,96973.41
2023-10-25T19:06:42.394Z,96970.92
2023-10-25T19:09:31.871Z,96965.95
2023-10-25T19:12:21.737Z,96965.88
2023-10-25T19:15:09.363Z,96965.40
2023-10-25T19:17:58.879Z,96966.67
2023-10-25T19:20:45.737Z,96960.20
2023-10-25T19:23:32.623Z,96956.77
2023-10-25T19:26:20.264Z,96960.84
2023-10-25T19:29:07.670Z,96962.64
2023-10-25T19:31:54.490Z,96963.20
2023-10-25T19:34:41.338Z,96967.20
2023-10-25T19:37:28.216Z,96967.46
2023-10-25T19:40:18.929Z,96967.38
2023-10-25T19:43:09.065Z,96962.21
2023-10-25T19:45:56.331Z,96958.35
2023-10-25T19:48:43.137Z,96956.89
2023-10-25T19:51:30.312Z,96954.66
2023-10-25T19:54:17.839Z,96950.79
2023-10-25T19:57:05.679Z,96946.95
2023-10-25T19:59:52.881Z,96944.69
2023-10-25T20:02:43.426Z,96939.73
2023-10-25T20:05:30.499Z,96941.23
2023-10-25T20:08:23.154Z,96934.89
2023-10-25T20:11:09.995Z,96933.08
2023-10-25T20:13:57.607Z,96935.86
2023-10-25T20:16:44.227Z,96935.98
2023-10-25T20:19:30.977Z,96932.80
2023-10-25T20:22:18.258Z,96935.71
2023-10-25T20:25:05.874Z,96936.05
2023-10-25T20:27:56.129Z,96933.43
2023-10-25T20:30:44.057Z,96932.01
2023-10-25T20:33:31.044Z,96934.39
2023-10-25T20:36:18.474Z,96933.59
2023-10-25T20:39:05.055Z,96937.09
2023-10-25T20:41:54.048Z,96939.48
2023-10-25T20:44:46.247Z,96936.23
2023-10-25T20:47:33.422Z,96932.66
2023-10-25T20:50:20.153Z,96936.94
2023-10-25T20:53:07.087Z,96937.17
2023-10-25T20:55:54.646Z,96939.81
2023-10-25T20:58:41.729Z,96940.69
2023-10-25T21:01:28.657Z,96937.77
2023-10-25T21:04:15.807Z,96936.19
2023-10-25T21:07:02.892Z,96932.11
2023-10-25T21:09:49.720Z,96928.58
2023-10-25T21:12:36.733Z,96928.07
2023-10-25T21:15:24.558Z,96925.55
2023-10-25T21:18:12.061Z,96921.88
2023-10-25T21:20:59.327Z,96919.84
2023-10-25T21:23:46.344Z,96919.01
2023-10-25T21:26:34.378Z,96915.44
2023-10-25T21:29:21.193Z,96907.29
2023-10-25T21:32:07.824Z,96903.69
2023-10-25T21:34:56.066Z,96907.71
2023-10-25T21:37:42.808Z,96908.31
2023-10-25T21:40:29.656Z,96905.21
2023-10-25T21:43:18.389Z,96902.80
2023-10-25T21:46:07.795Z,96897.66
2023-10-25T21:48:54.957Z,96897.95
2023-10-25T21:51:42.481Z,96895.53
2023-10-25T21:54:29.977Z,96888.80
2023-10-25T21:57:16.929Z,96882.60
2023-10-25T22:00:09.979Z,96876.73
2023-10-25T22:02:59.089Z,96874.55
2023-10-25T22:05:49.372Z,96880.91
2023-10-25T22:08:36.258Z,96877.72
2023-10-25T22:11:25.044Z,96873.80
2023-10-25T22:14:12.419Z,96866.98
2023-10-25T22:16:59.962Z,96869.63
2023-10-25T22:19:46.863Z,96871.52
2023-10-25T22:22:34.111Z,96869.27
2023-10-25T22:25:21.101Z,96871.67
2023-10-25T22:28:08.142Z,96864.77
2023-10-25T22:30:55.041Z,96864.92
2023-10-25T22:33:42.096Z,96869.59
2023-10-25T22:36:28.955Z,96872.30
2023-10-25T22:39:16.678Z,96875.98
2023-10-25T22:42:03.814Z,96874.52
2023-10-25T22:44:50.598Z,96871.55
2023-10-25T22:47:37.299Z,96867.96
2023-10-25T22:50:24.226Z,96863.82
2023-10-25T22:53:10.808Z,96863.90
2023-10-25T22:56:03.618Z,96863.20
2023-10-25T22:58:50.400Z,96863.98
2023-10-25T23:01:37.302Z,96863.38
2023-10-25T23:04:24.330Z,96862.11
2023-10-25T23:07:11.445Z,96855.43
2023-10-25T23:10:00.371Z,96855.23
2023-10-25T23:12:47.376Z,96850.53
2023-10-25T23:15:37.350Z,96851.70
2023-10-25T23:18:24.317Z,96847.34
2023-10-25T23:21:11.348Z,96844.42
2023-10-25T23:23:57.989Z,96843.83
2023-10-25T23:26:45.044Z,96839.27
2023-10-25T23:29:32.385Z,96834.25
2023-10-25T23:32:19.565Z,96830.61
2023-10-25T23:35:06.350Z,96828.04
2023-10-25T23:37:53.137Z,96826.45
2023-10-25T23:40:39.719Z,96826.02
2023-10-25T23:43:27.227Z,96822.36
2023-10-25T23:46:14.128Z,96816.71
2023-10-25T23:49:01.257Z,96817.95
2023-10-25T23:51:48.385Z,96820.46
2023-10-25T23:54:50.617Z,96817.20
2023-10-25T23:57:42.350Z,96818.04
